Time;durP1;ratioP1;P1;durP2;ratioP2;P2;SDS_P1;SDS_P2;PMS_P1;PMS_P2;Temp;Humidity;BMP_temperature;BMP_pressure;BME280_temperature;BME280_humidity;BME280_pressure;Samples;Min_cycle;Max_cycle;Signal;HPM_P1;HPM_P2
2023/01/20 00:01:28;;;;;;;87.10;16.63;;;-0.10;99.90;;;;;;5072129;28;20024;-67
2023/01/20 00:03:55;;;;;;;65.47;16.38;;;0.00;99.90;;;;;;5072984;28;20040;-67
2023/01/20 00:06:21;;;;;;;67.32;17.48;;;0.10;99.90;;;;;;5071610;28;20032;-67
2023/01/20 00:08:51;;;;;;;55.10;15.48;;;0.20;99.90;;;;;;5071540;28;20050;-67
2023/01/20 00:11:17;;;;;;;58.78;14.20;;;0.30;99.90;;;;;;5077426;28;20077;-67
2023/01/20 00:13:42;;;;;;;35.80;12.85;;;0.40;99.90;;;;;;5071625;28;20024;-67
2023/01/20 00:16:09;;;;;;;33.53;12.25;;;0.20;99.90;;;;;;5091870;22;20060;-71
2023/01/20 00:18:36;;;;;;;48.30;15.13;;;0.30;99.90;;;;;;5056795;28;20075;-72
2023/01/20 00:21:09;;;;;;;40.58;13.40;;;0.30;99.90;;;;;;5055463;28;20035;-72
2023/01/20 00:23:35;;;;;;;35.10;12.40;;;0.30;99.90;;;;;;5055490;28;20032;-72
2023/01/20 00:26:09;;;;;;;33.53;12.88;;;0.40;99.90;;;;;;5055641;28;20025;-72
2023/01/20 00:28:35;;;;;;;35.33;13.35;;;0.50;99.90;;;;;;5055486;28;20029;-72
2023/01/20 00:31:28;;;;;;;41.08;14.38;;;0.60;99.90;;;;;;5055268;28;20048;-72
2023/01/20 00:33:56;;;;;;;65.72;16.05;;;0.60;99.90;;;;;;5053605;28;20491;-72
2023/01/20 00:36:22;;;;;;;34.15;13.52;;;0.40;99.90;;;;;;5055328;28;20021;-72
2023/01/20 00:38:48;;;;;;;37.53;13.88;;;0.40;99.90;;;;;;5055155;28;20032;-72
2023/01/20 00:41:15;;;;;;;40.88;14.75;;;0.50;99.90;;;;;;5056313;28;20029;-72
2023/01/20 00:43:40;;;;;;;33.58;13.25;;;0.70;99.90;;;;;;5056302;28;20021;-72
2023/01/20 00:46:06;;;;;;;34.20;14.45;;;0.70;99.90;;;;;;5055153;28;20050;-72
2023/01/20 00:48:32;;;;;;;31.77;13.00;;;0.80;99.90;;;;;;5056138;28;20040;-72
2023/01/20 00:50:58;;;;;;;34.05;13.50;;;0.80;99.90;;;;;;5055039;28;20419;-72
2023/01/20 00:53:24;;;;;;;36.92;14.05;;;0.90;99.90;;;;;;5054894;28;20021;-72
2023/01/20 00:55:49;;;;;;;38.15;13.52;;;0.90;99.90;;;;;;5055573;28;20093;-72
2023/01/20 00:58:15;;;;;;;39.45;16.10;;;0.70;99.90;;;;;;5056324;28;20104;-72
2023/01/20 01:00:41;;;;;;;38.30;13.77;;;0.60;99.90;;;;;;5054749;28;20021;-72
2023/01/20 01:03:06;;;;;;;28.50;11.60;;;0.60;99.90;;;;;;5054618;28;20025;-72
2023/01/20 01:05:32;;;;;;;32.05;11.68;;;0.60;99.90;;;;;;5055384;28;20021;-72
2023/01/20 01:07:57;;;;;;;29.98;11.82;;;0.70;99.90;;;;;;5055782;28;20124;-72
2023/01/20 01:10:23;;;;;;;25.05;10.85;;;0.90;99.90;;;;;;5054609;28;20021;-72
2023/01/20 01:12:49;;;;;;;26.27;11.10;;;1.00;99.90;;;;;;5055276;28;20071;-72
2023/01/20 01:15:14;;;;;;;32.22;12.40;;;1.00;99.90;;;;;;5055042;28;20013;-72
2023/01/20 01:17:42;;;;;;;27.10;11.45;;;1.00;99.90;;;;;;5055536;28;20492;-72
2023/01/20 01:20:12;;;;;;;32.38;12.35;;;0.90;99.90;;;;;;5055536;28;20032;-72
2023/01/20 01:22:38;;;;;;;33.95;13.15;;;0.80;99.90;;;;;;5054316;28;20025;-72
2023/01/20 01:25:05;;;;;;;32.60;11.80;;;0.80;99.90;;;;;;5054341;28;20032;-72
2023/01/20 01:27:30;;;;;;;31.73;11.73;;;0.80;99.90;;;;;;5054901;28;20025;-72
2023/01/20 01:29:56;;;;;;;26.77;11.43;;;0.90;99.90;;;;;;5055456;28;20025;-72
2023/01/20 01:32:22;;;;;;;29.77;11.63;;;1.10;99.90;;;;;;5055712;28;20088;-72
2023/01/20 01:34:48;;;;;;;26.42;11.50;;;1.10;99.90;;;;;;5055498;28;20049;-72
2023/01/20 01:37:13;;;;;;;25.08;10.88;;;1.20;99.90;;;;;;5055341;28;20025;-72
2023/01/20 01:39:39;;;;;;;25.02;11.27;;;1.30;99.90;;;;;;5055261;28;20025;-72
2023/01/20 01:42:16;;;;;;;24.95;10.75;;;1.30;99.90;;;;;;5054534;28;20024;-72
2023/01/20 01:45:06;;;;;;;25.48;11.02;;;1.30;99.90;;;;;;5055522;28;20035;-72
2023/01/20 01:47:32;;;;;;;24.27;10.25;;;1.30;99.90;;;;;;5054976;28;20029;-72
2023/01/20 01:49:58;;;;;;;29.08;10.57;;;1.30;99.90;;;;;;5053736;28;20051;-72
2023/01/20 01:52:23;;;;;;;27.58;10.90;;;1.30;99.90;;;;;;5053843;28;20017;-72
2023/01/20 01:54:50;;;;;;;25.83;11.50;;;1.20;99.90;;;;;;5054116;28;20025;-72
2023/01/20 01:57:15;;;;;;;25.38;11.25;;;1.20;99.90;;;;;;5055159;28;20063;-72
2023/01/20 01:59:43;;;;;;;30.10;11.52;;;1.10;99.90;;;;;;5054474;28;20028;-72
2023/01/20 02:02:08;;;;;;;27.90;10.73;;;1.00;99.90;;;;;;5053578;28;20021;-72
2023/01/20 02:04:34;;;;;;;23.80;10.63;;;0.90;99.90;;;;;;5055380;28;20079;-72
2023/01/20 02:07:11;;;;;;;24.83;10.73;;;0.90;99.90;;;;;;5053363;28;20029;-72
2023/01/20 02:09:37;;;;;;;25.65;11.48;;;0.90;99.90;;;;;;5053463;28;20024;-72
2023/01/20 02:12:07;;;;;;;25.17;11.02;;;1.00;99.90;;;;;;5053385;28;20028;-72
2023/01/20 02:14:51;;;;;;;26.67;10.38;;;1.00;99.90;;;;;;5054872;28;20084;-72
2023/01/20 02:17:46;;;;;;;21.05;9.93;;;1.00;99.90;;;;;;5053313;28;20033;-72
2023/01/20 02:20:57;;;;;;;25.60;9.75;;;0.90;99.90;;;;;;5054563;28;20035;-72
2023/01/20 02:23:42;;;;;;;22.58;9.57;;;0.90;99.90;;;;;;5054714;28;20017;-72
2023/01/20 02:26:26;;;;;;;26.55;11.05;;;0.90;99.90;;;;;;5054027;28;20120;-72
2023/01/20 02:29:39;;;;;;;19.65;9.10;;;0.90;99.90;;;;;;5052962;28;20115;-72
2023/01/20 02:32:22;;;;;;;17.45;8.50;;;1.10;99.90;;;;;;5053350;28;20028;-72
2023/01/20 02:34:58;;;;;;;22.88;9.73;;;1.30;99.90;;;;;;5053013;28;20112;-72
2023/01/20 02:37:29;;;;;;;19.60;9.32;;;1.30;99.90;;;;;;5052055;28;20071;-72
2023/01/20 02:40:07;;;;;;;22.45;10.25;;;1.20;99.90;;;;;;5054456;28;20475;-72
2023/01/20 02:42:44;;;;;;;20.33;9.48;;;1.20;99.90;;;;;;5053689;28;20020;-72
2023/01/20 02:45:14;;;;;;;20.77;8.45;;;1.20;99.90;;;;;;5054313;28;20472;-72
2023/01/20 02:47:52;;;;;;;19.00;8.52;;;1.30;99.90;;;;;;5052674;28;20021;-72
2023/01/20 02:50:30;;;;;;;18.63;8.68;;;1.20;99.90;;;;;;5053861;28;20031;-72
2023/01/20 02:52:58;;;;;;;16.80;8.05;;;1.10;99.90;;;;;;5052524;28;20021;-72
2023/01/20 02:55:43;;;;;;;20.88;9.60;;;1.00;99.90;;;;;;5053368;28;20029;-72
2023/01/20 02:58:31;;;;;;;20.80;9.25;;;0.80;99.90;;;;;;5053304;28;20119;-72
2023/01/20 03:01:02;;;;;;;17.05;8.43;;;0.70;99.90;;;;;;5053640;28;20029;-72
2023/01/20 03:03:37;;;;;;;21.27;9.35;;;0.70;99.90;;;;;;5054069;28;20029;-72
2023/01/20 03:06:07;;;;;;;17.75;8.25;;;0.70;99.90;;;;;;5053194;28;20039;-72
2023/01/20 03:08:35;;;;;;;18.23;9.00;;;0.80;99.90;;;;;;5053766;28;20025;-72
2023/01/20 03:11:05;;;;;;;21.23;8.80;;;0.80;99.90;;;;;;5053806;28;20058;-72
2023/01/20 03:13:36;;;;;;;23.05;10.25;;;0.90;99.90;;;;;;5053645;28;20027;-72
2023/01/20 03:16:11;;;;;;;18.80;8.75;;;0.90;99.90;;;;;;5053271;28;20033;-71
2023/01/20 03:18:38;;;;;;;17.73;8.70;;;0.90;99.90;;;;;;5053410;28;20119;-72
2023/01/20 03:21:06;;;;;;;18.73;9.02;;;0.90;99.90;;;;;;5053418;28;20021;-72
2023/01/20 03:23:34;;;;;;;23.27;9.38;;;0.90;99.90;;;;;;5052100;28;20114;-72
2023/01/20 03:26:05;;;;;;;19.33;9.35;;;0.80;99.90;;;;;;5052034;28;20083;-72
2023/01/20 03:28:31;;;;;;;22.40;9.60;;;0.60;99.90;;;;;;5053333;28;20025;-72
2023/01/20 03:30:58;;;;;;;21.70;9.25;;;0.50;99.90;;;;;;5053655;28;20021;-72
2023/01/20 03:33:24;;;;;;;23.40;9.85;;;0.40;99.90;;;;;;5053600;28;20029;-72
2023/01/20 03:35:51;;;;;;;19.42;9.52;;;0.30;99.90;;;;;;5051880;28;20051;-72
2023/01/20 03:38:17;;;;;;;20.55;9.73;;;0.20;99.90;;;;;;5053160;28;20025;-72
2023/01/20 03:41:02;;;;;;;16.88;8.27;;;0.30;99.90;;;;;;5053127;28;20046;-72
2023/01/20 03:43:51;;;;;;;21.58;8.55;;;0.40;99.90;;;;;;5052225;28;20388;-72
2023/01/20 03:46:46;;;;;;;16.48;7.63;;;0.50;99.90;;;;;;5051736;28;20021;-72
2023/01/20 03:49:56;;;;;;;21.08;9.05;;;0.50;99.90;;;;;;5050574;28;20079;-72
2023/01/20 03:52:36;;;;;;;17.75;8.18;;;0.60;99.90;;;;;;5051808;28;20051;-72
2023/01/20 03:55:27;;;;;;;21.98;8.57;;;0.70;99.90;;;;;;5053035;28;20029;-72
2023/01/20 03:58:02;;;;;;;18.10;8.03;;;0.80;99.90;;;;;;5051939;28;20031;-72
2023/01/20 04:00:29;;;;;;;17.30;8.65;;;0.50;99.90;;;;;;5053037;28;20024;-72
2023/01/20 04:02:57;;;;;;;20.70;7.82;;;0.60;99.90;;;;;;5053262;28;20151;-72
2023/01/20 04:05:24;;;;;;;16.20;7.65;;;0.80;99.90;;;;;;5051642;28;20025;-72
2023/01/20 04:07:51;;;;;;;20.67;9.43;;;0.70;99.90;;;;;;5051531;28;20104;-72
2023/01/20 04:10:17;;;;;;;15.48;7.07;;;0.60;99.90;;;;;;5053193;28;20021;-72
2023/01/20 04:12:43;;;;;;;17.63;7.65;;;0.50;99.90;;;;;;5053120;28;20025;-72
2023/01/20 04:15:09;;;;;;;18.15;7.03;;;0.40;99.90;;;;;;5051666;28;20076;-72
2023/01/20 04:17:35;;;;;;;15.07;7.00;;;0.30;99.90;;;;;;5051359;28;20033;-72
2023/01/20 04:20:06;;;;;;;16.23;7.82;;;0.20;99.90;;;;;;5051469;28;20051;-72
2023/01/20 04:22:58;;;;;;;16.97;7.43;;;0.40;99.90;;;;;;5052660;28;20395;-71
2023/01/20 04:25:28;;;;;;;14.55;6.95;;;0.30;99.90;;;;;;5051688;28;20275;-71
2023/01/20 04:27:54;;;;;;;15.32;7.10;;;0.30;99.90;;;;;;5052973;28;20111;-72
2023/01/20 04:30:20;;;;;;;14.13;7.30;;;0.30;99.90;;;;;;5051506;28;20111;-72
2023/01/20 04:32:45;;;;;;;17.48;8.43;;;0.30;99.90;;;;;;5052207;28;20039;-72
2023/01/20 04:35:16;;;;;;;14.55;7.60;;;0.10;99.90;;;;;;5052719;28;20112;-72
2023/01/20 04:37:42;;;;;;;15.07;7.15;;;0.10;99.90;;;;;;5052608;28;20032;-72
2023/01/20 04:40:08;;;;;;;15.00;6.88;;;0.20;99.90;;;;;;5052527;28;20025;-72
2023/01/20 04:42:34;;;;;;;16.30;7.05;;;0.20;99.90;;;;;;5051163;28;20051;-72
2023/01/20 04:45:00;;;;;;;13.50;6.53;;;0.20;99.90;;;;;;5053061;28;20033;-72
2023/01/20 04:47:28;;;;;;;17.38;7.47;;;0.40;99.90;;;;;;5052388;28;20025;-72
2023/01/20 04:49:54;;;;;;;15.10;6.90;;;0.40;99.90;;;;;;5051495;28;20032;-72
2023/01/20 04:52:19;;;;;;;14.48;7.38;;;0.50;99.90;;;;;;5052669;28;20021;-72
2023/01/20 04:54:45;;;;;;;14.18;6.65;;;0.40;99.90;;;;;;5052710;28;20022;-72
2023/01/20 04:57:10;;;;;;;15.75;7.18;;;0.30;99.90;;;;;;5051091;28;20044;-72
2023/01/20 04:59:36;;;;;;;12.80;6.90;;;0.40;99.90;;;;;;5052378;28;20089;-72
2023/01/20 05:02:01;;;;;;;14.88;7.18;;;0.50;99.90;;;;;;5053466;28;20033;-72
2023/01/20 05:04:27;;;;;;;14.13;7.38;;;0.50;99.90;;;;;;5054780;28;20029;-72
2023/01/20 05:06:52;;;;;;;13.15;6.93;;;0.50;99.90;;;;;;5054750;28;20021;-71
2023/01/20 05:09:18;;;;;;;14.13;6.70;;;0.40;99.90;;;;;;5056157;28;20025;-72
2023/01/20 05:11:43;;;;;;;17.40;7.65;;;0.20;99.90;;;;;;5054512;28;20024;-72
2023/01/20 05:14:12;;;;;;;16.88;7.63;;;0.20;99.90;;;;;;5055897;28;20035;-72
2023/01/20 05:16:38;;;;;;;15.60;7.28;;;0.30;99.90;;;;;;5054670;28;20029;-71
2023/01/20 05:19:03;;;;;;;16.23;7.40;;;0.30;99.90;;;;;;5054448;28;20108;-72
2023/01/20 05:21:29;;;;;;;16.30;7.20;;;0.30;99.90;;;;;;5054508;28;20029;-72
2023/01/20 05:23:55;;;;;;;14.85;6.38;;;0.30;99.90;;;;;;5055590;28;20025;-72
2023/01/20 05:26:24;;;;;;;16.55;8.27;;;0.30;99.90;;;;;;5055036;28;20048;-71
2023/01/20 05:28:50;;;;;;;15.23;7.55;;;0.30;99.90;;;;;;5055684;28;20100;-72
2023/01/20 05:31:16;;;;;;;17.90;7.28;;;0.40;99.90;;;;;;5055553;28;20060;-72
2023/01/20 05:33:42;;;;;;;14.88;6.65;;;0.50;99.90;;;;;;5055109;28;20059;-72
2023/01/20 05:36:09;;;;;;;13.23;6.80;;;0.60;99.90;;;;;;5055606;28;20491;-72
2023/01/20 05:38:35;;;;;;;17.02;7.57;;;0.50;99.90;;;;;;5054128;28;20035;-72
2023/01/20 05:41:02;;;;;;;17.05;7.60;;;0.60;99.90;;;;;;5054025;28;20021;-72
2023/01/20 05:43:28;;;;;;;16.52;7.32;;;0.80;99.90;;;;;;5055344;28;20080;-72
2023/01/20 05:45:53;;;;;;;12.57;6.15;;;0.70;99.90;;;;;;5056266;28;20076;-72
2023/01/20 05:48:20;;;;;;;16.23;7.85;;;0.70;99.90;;;;;;5054643;28;20033;-72
2023/01/20 05:50:45;;;;;;;15.85;7.10;;;0.80;99.90;;;;;;5054967;28;20082;-72
2023/01/20 05:53:11;;;;;;;14.15;6.60;;;0.90;99.90;;;;;;5053911;28;20084;-72
2023/01/20 05:55:36;;;;;;;17.45;7.40;;;1.00;99.90;;;;;;5055377;28;20047;-71
2023/01/20 05:58:02;;;;;;;14.68;6.72;;;1.00;99.90;;;;;;5053895;28;20025;-72
2023/01/20 06:00:29;;;;;;;14.43;6.63;;;0.90;99.90;;;;;;5054559;28;20021;-72
2023/01/20 06:02:54;;;;;;;19.60;7.32;;;0.90;99.90;;;;;;5053956;28;20017;-72
2023/01/20 06:05:20;;;;;;;16.00;7.97;;;0.90;99.90;;;;;;5053744;28;20019;-72
2023/01/20 06:07:45;;;;;;;18.27;7.45;;;0.90;99.90;;;;;;5053511;28;20039;-72
2023/01/20 06:10:11;;;;;;;15.05;7.15;;;0.90;99.90;;;;;;5055390;28;20021;-72
2023/01/20 06:12:37;;;;;;;15.10;6.85;;;0.90;99.90;;;;;;5054774;28;20071;-72
2023/01/20 06:15:03;;;;;;;17.20;7.22;;;0.80;99.90;;;;;;5053714;28;20029;-72
2023/01/20 06:17:29;;;;;;;17.85;8.05;;;0.70;99.90;;;;;;5076956;22;20047;-71
2023/01/20 06:19:55;;;;;;;14.95;6.88;;;0.60;99.90;;;;;;5055084;28;20105;-71
2023/01/20 06:22:20;;;;;;;13.15;6.57;;;0.60;99.90;;;;;;5054697;28;20024;-71
2023/01/20 06:24:46;;;;;;;15.75;7.03;;;0.50;99.90;;;;;;5036521;28;20033;-70
2023/01/20 06:27:11;;;;;;;13.38;7.00;;;0.40;99.90;;;;;;5036478;28;20113;-70
2023/01/20 06:29:37;;;;;;;15.77;7.72;;;0.30;99.90;;;;;;5036512;28;20039;-70
2023/01/20 06:32:03;;;;;;;15.82;6.88;;;0.30;99.90;;;;;;5054813;28;20046;-71
2023/01/20 06:34:28;;;;;;;13.55;6.53;;;0.50;99.90;;;;;;5054346;28;20025;-71
2023/01/20 06:36:54;;;;;;;18.17;7.47;;;0.60;99.90;;;;;;5036307;28;20017;-70
2023/01/20 06:39:20;;;;;;;17.48;7.43;;;0.50;99.90;;;;;;5036706;28;20025;-71
2023/01/20 06:41:45;;;;;;;18.92;8.23;;;0.50;99.90;;;;;;5053977;28;20088;-71
2023/01/20 06:44:11;;;;;;;22.45;8.52;;;0.50;99.90;;;;;;5036332;28;20035;-72
2023/01/20 06:46:36;;;;;;;18.02;7.90;;;0.60;99.90;;;;;;5036283;28;20021;-71
2023/01/20 06:49:02;;;;;;;21.35;8.70;;;0.80;99.90;;;;;;5036512;28;20029;-71
2023/01/20 06:51:29;;;;;;;21.50;8.57;;;0.80;99.90;;;;;;5036076;28;20029;-71
2023/01/20 06:53:55;;;;;;;30.35;10.38;;;0.90;99.90;;;;;;5037075;28;20099;-72
2023/01/20 06:56:21;;;;;;;25.50;9.80;;;1.00;99.90;;;;;;5054076;28;20029;-72
2023/01/20 06:58:47;;;;;;;30.30;10.13;;;1.00;99.90;;;;;;5035786;28;20407;-72
2023/01/20 07:01:17;;;;;;;25.58;9.07;;;1.00;99.90;;;;;;5053822;28;20028;-71
2023/01/20 07:03:43;;;;;;;25.85;9.25;;;0.90;99.90;;;;;;5036396;28;20086;-71
2023/01/20 07:06:15;;;;;;;22.60;9.23;;;0.90;99.90;;;;;;5036050;28;20021;-71
2023/01/20 07:08:42;;;;;;;27.23;9.35;;;0.80;99.90;;;;;;5036029;28;20104;-71
2023/01/20 07:11:08;;;;;;;26.48;9.65;;;0.70;99.90;;;;;;5036499;28;20028;-71
2023/01/20 07:13:34;;;;;;;20.95;8.82;;;0.60;99.90;;;;;;5053800;28;20021;-71
2023/01/20 07:15:59;;;;;;;25.98;9.43;;;0.50;99.90;;;;;;5053511;28;20032;-71
2023/01/20 07:18:25;;;;;;;23.15;9.75;;;0.60;99.90;;;;;;5053699;28;20048;-71
2023/01/20 07:20:54;;;;;;;21.52;8.52;;;0.60;99.90;;;;;;5035811;28;20025;-71
2023/01/20 07:23:20;;;;;;;24.67;9.57;;;0.60;99.90;;;;;;5035075;28;20032;-71
2023/01/20 07:25:46;;;;;;;31.20;10.05;;;0.50;99.90;;;;;;5036233;28;20139;-71
2023/01/20 07:28:27;;;;;;;21.55;9.30;;;0.50;99.90;;;;;;5005701;28;20059;-71
2023/01/20 07:30:53;;;;;;;23.77;9.45;;;0.60;99.90;;;;;;5035474;28;20028;-71
2023/01/20 07:33:18;;;;;;;20.35;9.10;;;0.70;99.90;;;;;;5053472;28;20398;-71
2023/01/20 07:35:44;;;;;;;25.60;8.90;;;0.70;99.90;;;;;;5035327;28;20021;-71
2023/01/20 07:38:09;;;;;;;30.00;10.88;;;0.80;99.90;;;;;;5053574;28;20029;-71
2023/01/20 07:40:35;;;;;;;24.70;9.38;;;1.10;99.90;;;;;;5035313;28;20021;-71
2023/01/20 07:43:03;;;;;;;25.13;8.95;;;1.10;99.90;;;;;;5035345;28;20025;-71
2023/01/20 07:45:29;;;;;;;25.05;9.02;;;1.20;99.90;;;;;;5035558;28;20025;-71
2023/01/20 07:47:56;;;;;;;27.40;10.18;;;1.20;99.90;;;;;;5053292;28;20075;-71
2023/01/20 07:50:21;;;;;;;24.00;10.15;;;1.30;99.90;;;;;;5035072;28;20511;-71
2023/01/20 07:52:47;;;;;;;28.08;10.60;;;1.20;99.90;;;;;;5035392;28;20029;-71
2023/01/20 07:55:12;;;;;;;29.75;10.35;;;1.10;99.90;;;;;;5035195;28;20047;-71
2023/01/20 07:57:38;;;;;;;25.67;9.40;;;0.90;99.90;;;;;;5034866;28;20102;-71
2023/01/20 08:00:05;;;;;;;23.90;9.07;;;0.90;99.90;;;;;;5035701;28;20021;-70
2023/01/20 08:02:35;;;;;;;23.48;9.18;;;0.90;99.90;;;;;;5052809;28;20029;-70
2023/01/20 08:05:00;;;;;;;25.67;9.50;;;0.90;99.90;;;;;;5034994;28;20025;-71
2023/01/20 08:07:26;;;;;;;21.77;8.80;;;1.10;99.90;;;;;;5034953;28;20033;-71
2023/01/20 08:09:51;;;;;;;21.73;9.32;;;1.10;99.90;;;;;;5053132;28;20029;-71
2023/01/20 08:12:17;;;;;;;21.15;8.73;;;1.30;99.90;;;;;;5035105;28;20025;-71
2023/01/20 08:14:42;;;;;;;19.65;9.23;;;1.40;99.90;;;;;;5036082;28;20117;-71
2023/01/20 08:17:08;;;;;;;23.65;9.48;;;1.50;99.90;;;;;;5052660;28;20049;-71
2023/01/20 08:19:33;;;;;;;22.20;9.70;;;1.40;99.90;;;;;;5034880;28;20025;-71
2023/01/20 08:21:59;;;;;;;21.52;9.85;;;1.40;99.90;;;;;;5052707;28;20025;-71
2023/01/20 08:24:24;;;;;;;23.20;9.90;;;1.50;99.90;;;;;;5034905;28;20025;-72
2023/01/20 08:26:50;;;;;;;23.35;9.15;;;1.50;99.90;;;;;;5034770;28;20033;-71
2023/01/20 08:29:15;;;;;;;25.80;9.63;;;1.50;99.90;;;;;;5035016;28;20087;-70
2023/01/20 08:31:41;;;;;;;18.58;8.63;;;1.40;99.90;;;;;;5034910;28;20021;-71
2023/01/20 08:34:07;;;;;;;20.75;9.20;;;1.40;99.90;;;;;;5035634;28;20017;-71
2023/01/20 08:36:35;;;;;;;20.58;8.75;;;1.40;99.90;;;;;;5054325;28;20054;-71
2023/01/20 08:39:03;;;;;;;23.70;9.05;;;1.30;99.90;;;;;;5038688;28;20032;-71
2023/01/20 08:41:32;;;;;;;24.15;9.32;;;1.30;99.90;;;;;;5039125;28;20371;-71
2023/01/20 08:44:00;;;;;;;27.08;10.32;;;1.30;99.90;;;;;;5057031;28;20036;-72
2023/01/20 08:46:26;;;;;;;26.58;9.63;;;1.30;99.90;;;;;;5038649;28;20503;-72
2023/01/20 08:48:53;;;;;;;27.35;10.43;;;1.20;99.90;;;;;;5038171;28;20053;-72
2023/01/20 08:51:22;;;;;;;24.40;9.82;;;1.20;99.90;;;;;;5039193;28;20112;-70
2023/01/20 08:53:49;;;;;;;29.67;10.45;;;1.40;99.90;;;;;;5038367;28;20017;-71
2023/01/20 08:56:16;;;;;;;26.67;10.35;;;1.50;99.90;;;;;;5039131;28;20036;-70
2023/01/20 08:58:41;;;;;;;27.08;11.35;;;1.40;99.90;;;;;;5056290;28;20080;-69
2023/01/20 09:01:28;;;;;;;27.23;10.70;;;1.50;99.90;;;;;;5056383;28;20053;-69
2023/01/20 09:03:55;;;;;;;33.83;12.40;;;1.50;99.90;;;;;;5038222;28;20029;-69
2023/01/20 09:06:20;;;;;;;30.25;11.30;;;1.60;99.90;;;;;;5038075;28;20100;-69
2023/01/20 09:08:49;;;;;;;35.55;10.85;;;1.60;99.90;;;;;;5037813;28;20488;-69
2023/01/20 09:11:18;;;;;;;34.13;11.95;;;1.60;99.90;;;;;;5055820;28;20028;-68
2023/01/20 09:13:44;;;;;;;31.15;10.45;;;1.40;99.90;;;;;;5055793;28;20021;-69
2023/01/20 09:16:15;;;;;;;32.78;11.60;;;1.40;99.90;;;;;;5037913;28;20021;-69
2023/01/20 09:18:41;;;;;;;38.83;11.90;;;1.40;99.90;;;;;;5038099;28;20037;-69
2023/01/20 09:21:07;;;;;;;32.55;11.90;;;1.50;99.90;;;;;;5055582;28;20392;-68
2023/01/20 09:23:34;;;;;;;30.50;10.48;;;1.70;99.90;;;;;;5037767;28;20055;-69
2023/01/20 09:26:01;;;;;;;34.75;13.32;;;1.80;99.90;;;;;;5037637;28;20032;-69
2023/01/20 09:28:27;;;;;;;31.98;10.70;;;1.60;99.90;;;;;;5037364;28;20400;-69
2023/01/20 09:31:00;;;;;;;33.38;11.20;;;1.60;99.90;;;;;;5037560;28;20043;-69
2023/01/20 09:33:26;;;;;;;29.50;10.32;;;1.60;99.90;;;;;;5037499;28;20029;-69
2023/01/20 09:35:56;;;;;;;35.58;11.98;;;1.60;99.90;;;;;;5037346;28;20134;-69
2023/01/20 09:44:14;;;;;;;39.90;12.27;;;1.10;99.90;;;;;;5055777;28;20031;-69
2023/01/20 09:53:04;;;;;;;35.08;11.27;;;1.40;99.90;;;;;;5055317;28;20036;-72
2023/01/20 09:55:48;;;;;;;29.73;10.15;;;1.50;99.90;;;;;;5055078;28;20025;-72
2023/01/20 10:01:44;;;;;;;29.45;10.65;;;1.60;99.90;;;;;;5055188;28;20023;-72
2023/01/20 10:04:21;;;;;;;23.45;9.02;;;1.70;99.90;;;;;;5037002;28;20483;-72
2023/01/20 10:07:01;;;;;;;32.10;10.63;;;1.60;99.90;;;;;;5055080;28;20021;-72
2023/01/20 10:09:59;;;;;;;33.08;11.65;;;1.80;99.90;;;;;;5054552;28;20028;-72
2023/01/20 10:12:30;;;;;;;27.65;10.27;;;1.90;99.90;;;;;;4993524;28;20034;-72
2023/01/20 10:15:04;;;;;;;26.95;9.68;;;1.70;99.90;;;;;;4977624;28;20027;-72
2023/01/20 10:17:32;;;;;;;31.40;11.15;;;1.70;99.90;;;;;;4977026;28;20045;-72
2023/01/20 10:20:32;;;;;;;29.45;10.40;;;1.70;99.90;;;;;;4976877;28;20048;-72
2023/01/20 10:23:25;;;;;;;27.23;9.65;;;1.80;99.90;;;;;;4916362;29;20059;-72
2023/01/20 10:26:04;;;;;;;31.65;11.52;;;2.10;99.90;;;;;;4916344;29;20138;-72
2023/01/20 10:28:35;;;;;;;31.60;11.48;;;2.00;99.90;;;;;;4916275;29;20172;-72
2023/01/20 10:31:03;;;;;;;30.05;11.02;;;2.00;99.90;;;;;;4916237;29;20132;-72
2023/01/20 10:33:36;;;;;;;34.92;11.38;;;1.60;99.90;;;;;;4916262;29;20044;-72
2023/01/20 10:36:02;;;;;;;33.05;12.07;;;1.60;99.90;;;;;;4900351;29;20032;-72
2023/01/20 10:38:34;;;;;;;40.58;12.20;;;1.50;99.90;;;;;;4915922;29;20126;-72
2023/01/20 10:41:10;;;;;;;34.42;12.25;;;1.60;99.90;;;;;;4915937;29;20032;-72
2023/01/20 10:43:35;;;;;;;34.13;12.27;;;1.60;99.90;;;;;;4915904;29;20039;-72
2023/01/20 10:46:11;;;;;;;30.08;10.38;;;1.70;99.90;;;;;;4900279;29;20131;-72
2023/01/20 10:49:04;;;;;;;29.27;12.02;;;1.60;99.90;;;;;;4941407;28;20121;-71
2023/01/20 10:51:54;;;;;;;33.28;12.40;;;1.70;99.90;;;;;;4973420;28;20031;-72
2023/01/20 10:54:37;;;;;;;32.25;11.27;;;1.80;99.90;;;;;;4957475;28;20050;-72
2023/01/20 10:57:05;;;;;;;30.00;10.52;;;1.70;99.90;;;;;;4957494;28;20023;-71
2023/01/20 10:59:49;;;;;;;27.17;10.48;;;1.70;99.90;;;;;;5027077;28;20040;-71
2023/01/20 11:02:28;;;;;;;30.40;11.85;;;1.90;99.90;;;;;;5053849;28;20029;-71
2023/01/20 11:05:13;;;;;;;34.05;12.00;;;2.00;99.90;;;;;;5035839;28;20063;-72
2023/01/20 11:07:39;;;;;;;31.48;12.93;;;1.90;99.90;;;;;;5053669;28;20024;-71
2023/01/20 11:10:35;;;;;;;36.15;11.65;;;1.80;99.90;;;;;;5035594;28;20550;-71
2023/01/20 11:13:02;;;;;;;30.20;10.77;;;2.10;99.90;;;;;;5035778;28;20028;-69
2023/01/20 11:15:35;;;;;;;34.13;12.43;;;2.50;99.90;;;;;;5053819;28;20017;-69
2023/01/20 11:18:13;;;;;;;31.20;11.68;;;2.50;99.90;;;;;;5035797;28;20028;-69
2023/01/20 11:20:56;;;;;;;29.67;11.32;;;2.70;99.90;;;;;;5035511;28;20074;-69
2023/01/20 11:23:39;;;;;;;32.13;10.93;;;2.60;99.90;;;;;;5036252;28;20029;-69
2023/01/20 11:26:13;;;;;;;30.20;10.70;;;2.10;99.90;;;;;;5035634;28;20053;-69
2023/01/20 11:28:55;;;;;;;31.20;10.18;;;1.90;99.90;;;;;;5053198;28;20059;-72
2023/01/20 11:31:33;;;;;;;27.88;10.23;;;1.80;99.90;;;;;;5035492;28;20048;-73
2023/01/20 11:34:20;;;;;;;28.42;10.00;;;1.70;99.90;;;;;;5035454;28;20032;-73
2023/01/20 11:37:04;;;;;;;30.27;10.05;;;1.70;99.90;;;;;;5052719;28;20042;-72
2023/01/20 11:39:43;;;;;;;29.33;10.68;;;1.70;99.90;;;;;;5036178;28;20097;-73
2023/01/20 11:42:23;;;;;;;33.78;11.25;;;1.60;99.90;;;;;;5035490;28;20079;-73
2023/01/20 11:45:00;;;;;;;30.17;10.65;;;1.60;99.90;;;;;;5035899;28;20112;-73
2023/01/20 11:47:33;;;;;;;35.35;11.68;;;1.70;99.90;;;;;;5036122;28;20028;-72
2023/01/20 11:50:21;;;;;;;36.17;11.73;;;1.80;99.90;;;;;;5035907;28;20029;-74
2023/01/20 11:52:47;;;;;;;28.52;9.52;;;1.70;99.90;;;;;;5053092;28;20029;-75
2023/01/20 11:55:19;;;;;;;32.25;11.05;;;1.60;99.90;;;;;;5035219;28;20113;-74
2023/01/20 11:57:48;;;;;;;28.45;9.43;;;1.60;99.90;;;;;;5035130;28;20017;-74
2023/01/20 12:00:39;;;;;;;31.55;10.93;;;1.70;99.90;;;;;;5035928;28;20029;-74
2023/01/20 12:03:48;;;;;;;35.60;12.23;;;1.50;99.90;;;;;;5035038;28;20056;-74
2023/01/20 12:06:31;;;;;;;37.28;11.77;;;1.50;99.90;;;;;;5052905;28;20033;-74
2023/01/20 12:09:01;;;;;;;;;;;1.70;99.90;;;;;;5035560;28;20033;-74
2023/01/20 12:11:31;;;;;;;33.38;11.73;;;1.70;99.90;;;;;;5038415;28;19912;-74
2023/01/20 12:14:24;;;;;;;38.80;12.77;;;1.70;99.90;;;;;;5040373;28;20364;-74
2023/01/20 12:17:01;;;;;;;32.65;11.88;;;1.70;99.90;;;;;;5039632;28;20028;-74
2023/01/20 12:20:04;;;;;;;36.42;12.00;;;1.80;99.90;;;;;;5115120;22;20074;-69
2023/01/20 12:22:42;;;;;;;;;;;2.10;99.90;;;;;;5097503;28;20020;-70
2023/01/20 12:25:25;;;;;;;34.45;11.82;;;2.20;99.90;;;;;;5097108;28;19912;-70
2023/01/20 12:28:04;;;;;;;35.45;13.35;;;2.30;99.90;;;;;;5097093;28;20074;-70
2023/01/20 12:30:55;;;;;;;36.13;13.65;;;2.40;99.90;;;;;;5097202;28;20055;-70
2023/01/20 12:33:24;;;;;;;31.50;12.68;;;2.50;99.90;;;;;;5086225;28;20089;-71
2023/01/20 12:36:28;;;;;;;40.35;12.57;;;2.40;99.90;;;;;;5096764;28;20021;-72
2023/01/20 12:39:13;;;;;;;39.53;13.13;;;2.10;99.90;;;;;;5096750;28;20027;-72
2023/01/20 12:41:47;;;;;;;35.88;13.15;;;2.30;99.90;;;;;;5112495;28;20082;-71
2023/01/20 12:44:43;;;;;;;36.88;13.27;;;2.20;99.90;;;;;;5095859;28;20023;-72
2023/01/20 12:47:27;;;;;;;37.42;12.95;;;2.20;99.90;;;;;;5096893;28;20426;-72
2023/01/20 12:50:31;;;;;;;33.53;12.95;;;2.30;99.90;;;;;;5112703;28;20038;-71
2023/01/20 12:53:24;;;;;;;41.85;13.98;;;2.30;99.90;;;;;;5044474;28;20032;-72
2023/01/20 12:56:17;;;;;;;35.40;12.93;;;2.10;99.90;;;;;;5112244;28;20030;-72
2023/01/20 12:59:03;;;;;;;35.53;12.25;;;2.10;99.90;;;;;;5059166;28;20047;-72
2023/01/20 13:01:47;;;;;;;36.75;14.38;;;2.10;99.90;;;;;;5113021;28;20027;-72
2023/01/20 13:04:37;;;;;;;36.50;13.00;;;2.20;99.90;;;;;;5096709;28;20028;-72
2023/01/20 13:07:36;;;;;;;33.08;12.55;;;2.10;99.90;;;;;;5094969;28;20024;-72
2023/01/20 13:10:20;;;;;;;32.30;12.10;;;2.00;99.90;;;;;;5085017;28;20043;-71
2023/01/20 13:12:52;;;;;;;36.00;12.73;;;1.90;99.90;;;;;;5111902;28;20073;-71
2023/01/20 13:15:26;;;;;;;31.20;13.20;;;1.90;99.90;;;;;;5096494;28;20020;-72
2023/01/20 13:18:12;;;;;;;34.47;12.20;;;1.90;99.90;;;;;;5095392;28;20024;-71
2023/01/20 13:20:41;;;;;;;28.42;11.10;;;1.90;99.90;;;;;;5095892;28;20035;-72
2023/01/20 13:23:14;;;;;;;34.17;13.93;;;2.00;99.90;;;;;;5110832;28;20110;-72